sensor_id;sensor_type;location;lat;lon;timestamp;pressure;altitude;pressure_sealevel;temperature;humidity
47670;BME280;33408;52.062;11.722;2023-06-14T00:00:31;101304.91;;;14.17;92.78
47670;BME280;33408;52.062;11.722;2023-06-14T00:02:59;101298.34;;;14.01;93.91
47670;BME280;33408;52.062;11.722;2023-06-14T00:05:26;101301.03;;;13.98;94.05
47670;BME280;33408;52.062;11.722;2023-06-14T00:07:55;101301.97;;;13.94;94.94
47670;BME280;33408;52.062;11.722;2023-06-14T00:10:21;101303.69;;;13.95;95.26
47670;BME280;33408;52.062;11.722;2023-06-14T00:12:49;101304.88;;;13.81;95.28
47670;BME280;33408;52.062;11.722;2023-06-14T00:15:16;101298.72;;;13.84;95.72
47670;BME280;33408;52.062;11.722;2023-06-14T00:17:42;101307.47;;;13.83;96.16
47670;BME280;33408;52.062;11.722;2023-06-14T00:20:12;101310.06;;;13.83;96.65
47670;BME280;33408;52.062;11.722;2023-06-14T00:22:39;101308.72;;;13.63;97.48
47670;BME280;33408;52.062;11.722;2023-06-14T00:25:06;101308.94;;;13.56;98.11
47670;BME280;33408;52.062;11.722;2023-06-14T00:27:33;101305.41;;;13.57;98.62
47670;BME280;33408;52.062;11.722;2023-06-14T00:30:01;101299.13;;;13.67;98.97
47670;BME280;33408;52.062;11.722;2023-06-14T00:32:27;101305.41;;;13.57;99.40
47670;BME280;33408;52.062;11.722;2023-06-14T00:34:54;101308.75;;;13.62;99.36
47670;BME280;33408;52.062;11.722;2023-06-14T00:37:21;101315.19;;;13.45;100.00
47670;BME280;33408;52.062;11.722;2023-06-14T00:39:48;101308.44;;;13.37;100.00
47670;BME280;33408;52.062;11.722;2023-06-14T00:42:23;101317.09;;;13.39;100.00
47670;BME280;33408;52.062;11.722;2023-06-14T00:44:50;101311.19;;;13.27;100.00
47670;BME280;33408;52.062;11.722;2023-06-14T00:47:18;101307.56;;;13.36;100.00
47670;BME280;33408;52.062;11.722;2023-06-14T00:49:45;101306.56;;;13.43;100.00
47670;BME280;33408;52.062;11.722;2023-06-14T00:52:13;101307.72;;;13.28;100.00
47670;BME280;33408;52.062;11.722;2023-06-14T00:54:40;101309.38;;;13.31;100.00
47670;BME280;33408;52.062;11.722;2023-06-14T00:57:07;101309.25;;;13.40;100.00
47670;BME280;33408;52.062;11.722;2023-06-14T00:59:34;101305.88;;;13.35;100.00
47670;BME280;33408;52.062;11.722;2023-06-14T01:02:02;101317.94;;;13.39;100.00
47670;BME280;33408;52.062;11.722;2023-06-14T01:04:30;101305.56;;;13.49;100.00
47670;BME280;33408;52.062;11.722;2023-06-14T01:07:01;101315.03;;;13.53;100.00
47670;BME280;33408;52.062;11.722;2023-06-14T01:09:39;101314.38;;;13.43;100.00
47670;BME280;33408;52.062;11.722;2023-06-14T01:12:15;101322.16;;;13.45;100.00
47670;BME280;33408;52.062;11.722;2023-06-14T01:14:43;101319.16;;;13.20;100.00
47670;BME280;33408;52.062;11.722;2023-06-14T01:17:11;101332.94;;;13.25;100.00
47670;BME280;33408;52.062;11.722;2023-06-14T01:19:43;101321.13;;;13.08;100.00
47670;BME280;33408;52.062;11.722;2023-06-14T01:22:10;101320.78;;;12.82;100.00
47670;BME280;33408;52.062;11.722;2023-06-14T01:24:38;101323.63;;;12.68;100.00
47670;BME280;33408;52.062;11.722;2023-06-14T01:27:10;101318.63;;;12.55;100.00
47670;BME280;33408;52.062;11.722;2023-06-14T01:29:38;101316.72;;;12.65;100.00
47670;BME280;33408;52.062;11.722;2023-06-14T01:32:10;101316.25;;;12.42;100.00
47670;BME280;33408;52.062;11.722;2023-06-14T01:34:37;101313.69;;;12.40;100.00
47670;BME280;33408;52.062;11.722;2023-06-14T01:37:04;101316.41;;;12.32;100.00
47670;BME280;33408;52.062;11.722;2023-06-14T01:39:32;101315.44;;;12.38;100.00
47670;BME280;33408;52.062;11.722;2023-06-14T01:42:00;101315.41;;;12.39;100.00
47670;BME280;33408;52.062;11.722;2023-06-14T01:44:27;101312.81;;;12.39;100.00
47670;BME280;33408;52.062;11.722;2023-06-14T01:46:55;101311.00;;;12.45;100.00
47670;BME280;33408;52.062;11.722;2023-06-14T01:49:22;101316.31;;;12.38;100.00
47670;BME280;33408;52.062;11.722;2023-06-14T01:51:49;101315.59;;;12.30;100.00
47670;BME280;33408;52.062;11.722;2023-06-14T01:54:16;101314.09;;;12.14;100.00
47670;BME280;33408;52.062;11.722;2023-06-14T01:56:42;101325.19;;;12.25;100.00
47670;BME280;33408;52.062;11.722;2023-06-14T01:59:10;101319.97;;;12.25;100.00
47670;BME280;33408;52.062;11.722;2023-06-14T02:01:37;101319.97;;;12.25;100.00
47670;BME280;33408;52.062;11.722;2023-06-14T02:04:03;101323.41;;;12.29;100.00
47670;BME280;33408;52.062;11.722;2023-06-14T02:06:30;101320.97;;;12.18;100.00
47670;BME280;33408;52.062;11.722;2023-06-14T02:08:56;101334.03;;;12.13;100.00
47670;BME280;33408;52.062;11.722;2023-06-14T02:11:23;101328.88;;;12.10;100.00
47670;BME280;33408;52.062;11.722;2023-06-14T02:13:50;101320.13;;;12.17;100.00
47670;BME280;33408;52.062;11.722;2023-06-14T02:16:18;101328.06;;;12.07;100.00
47670;BME280;33408;52.062;11.722;2023-06-14T02:18:45;101327.97;;;12.14;100.00
47670;BME280;33408;52.062;11.722;2023-06-14T02:21:11;101328.00;;;12.11;100.00
47670;BME280;33408;52.062;11.722;2023-06-14T02:23:38;101334.88;;;12.14;100.00
47670;BME280;33408;52.062;11.722;2023-06-14T02:26:05;101332.34;;;12.11;100.00
47670;BME280;33408;52.062;11.722;2023-06-14T02:28:31;101332.34;;;12.11;100.00
47670;BME280;33408;52.062;11.722;2023-06-14T02:30:58;101331.50;;;12.09;100.00
47670;BME280;33408;52.062;11.722;2023-06-14T02:33:27;101336.72;;;12.07;100.00
47670;BME280;33408;52.062;11.722;2023-06-14T02:35:57;101333.28;;;12.07;100.00
47670;BME280;33408;52.062;11.722;2023-06-14T02:38:23;101330.63;;;12.10;100.00
47670;BME280;33408;52.062;11.722;2023-06-14T02:40:50;101334.16;;;12.04;100.00
47670;BME280;33408;52.062;11.722;2023-06-14T02:43:17;101332.50;;;12.01;100.00
47670;BME280;33408;52.062;11.722;2023-06-14T02:45:43;101334.13;;;12.06;100.00
47670;BME280;33408;52.062;11.722;2023-06-14T02:48:10;101333.25;;;12.08;100.00
47670;BME280;33408;52.062;11.722;2023-06-14T02:50:38;101338.63;;;11.94;100.00
47670;BME280;33408;52.062;11.722;2023-06-14T02:53:05;101330.81;;;11.96;100.00
47670;BME280;33408;52.062;11.722;2023-06-14T02:55:32;101333.34;;;12.02;100.00
47670;BME280;33408;52.062;11.722;2023-06-14T02:57:59;101335.03;;;12.06;100.00
47670;BME280;33408;52.062;11.722;2023-06-14T03:00:25;101329.81;;;12.06;100.00
47670;BME280;33408;52.062;11.722;2023-06-14T03:02:52;101334.19;;;12.02;100.00
47670;BME280;33408;52.062;11.722;2023-06-14T03:05:19;101334.06;;;12.12;100.00
47670;BME280;33408;52.062;11.722;2023-06-14T03:07:48;101339.31;;;12.07;100.00
47670;BME280;33408;52.062;11.722;2023-06-14T03:10:15;101344.53;;;12.06;100.00
47670;BME280;33408;52.062;11.722;2023-06-14T03:12:42;101341.97;;;12.04;100.00
47670;BME280;33408;52.062;11.722;2023-06-14T03:15:09;101342.22;;;11.85;100.00
47670;BME280;33408;52.062;11.722;2023-06-14T03:17:38;101347.28;;;11.98;100.00
47670;BME280;33408;52.062;11.722;2023-06-14T03:20:06;101356.75;;;12.00;100.00
47670;BME280;33408;52.062;11.722;2023-06-14T03:22:33;101351.50;;;12.03;100.00
47670;BME280;33408;52.062;11.722;2023-06-14T03:25:01;101357.50;;;12.07;100.00
47670;BME280;33408;52.062;11.722;2023-06-14T03:27:29;101351.47;;;12.07;100.00
47670;BME280;33408;52.062;11.722;2023-06-14T03:29:56;101360.03;;;12.12;100.00
47670;BME280;33408;52.062;11.722;2023-06-14T03:32:22;101343.19;;;12.37;100.00
47670;BME280;33408;52.062;11.722;2023-06-14T03:34:49;101359.44;;;13.00;100.00
47670;BME280;33408;52.062;11.722;2023-06-14T03:37:16;101359.63;;;12.91;100.00
47670;BME280;33408;52.062;11.722;2023-06-14T03:39:42;101367.06;;;12.63;100.00
47670;BME280;33408;52.062;11.722;2023-06-14T03:42:13;101367.81;;;12.69;100.00
47670;BME280;33408;52.062;11.722;2023-06-14T03:44:40;101371.63;;;13.46;100.00
47670;BME280;33408;52.062;11.722;2023-06-14T03:47:07;101366.84;;;14.08;100.00
47670;BME280;33408;52.062;11.722;2023-06-14T03:49:34;101374.06;;;14.70;100.00
47670;BME280;33408;52.062;11.722;2023-06-14T03:52:02;101370.41;;;15.10;100.00
47670;BME280;33408;52.062;11.722;2023-06-14T03:54:29;101364.16;;;15.16;100.00
47670;BME280;33408;52.062;11.722;2023-06-14T03:56:57;101371.22;;;16.03;95.80
47670;BME280;33408;52.062;11.722;2023-06-14T03:59:26;101372.38;;;15.94;92.31
47670;BME280;33408;52.062;11.722;2023-06-14T04:01:53;101378.97;;;16.61;86.82
47670;BME280;33408;52.062;11.722;2023-06-14T04:04:20;101376.41;;;16.59;87.21
47670;BME280;33408;52.062;11.722;2023-06-14T04:06:47;101378.88;;;16.64;85.19
47670;BME280;33408;52.062;11.722;2023-06-14T04:09:15;101387.41;;;16.16;89.25
47670;BME280;33408;52.062;11.722;2023-06-14T04:11:44;101378.16;;;16.32;87.00
47670;BME280;33408;52.062;11.722;2023-06-14T04:14:11;101385.56;;;15.91;89.65
47670;BME280;33408;52.062;11.722;2023-06-14T04:16:39;101379.25;;;15.97;90.29
47670;BME280;33408;52.062;11.722;2023-06-14T04:19:05;101386.66;;;16.12;90.47
47670;BME280;33408;52.062;11.722;2023-06-14T04:21:32;101380.94;;;16.28;91.43
47670;BME280;33408;52.062;11.722;2023-06-14T04:24:00;101388.28;;;16.70;87.33
47670;BME280;33408;52.062;11.722;2023-06-14T04:26:26;101382.25;;;16.94;87.23
47670;BME280;33408;52.062;11.722;2023-06-14T04:28:54;101387.13;;;17.05;87.91
47670;BME280;33408;52.062;11.722;2023-06-14T04:31:22;101388.03;;;16.51;87.52
47670;BME280;33408;52.062;11.722;2023-06-14T04:33:51;101381.59;;;16.61;87.39
47670;BME280;33408;52.062;11.722;2023-06-14T04:36:19;101385.53;;;16.48;89.50
47670;BME280;33408;52.062;11.722;2023-06-14T04:38:46;101394.44;;;16.95;88.42
47670;BME280;33408;52.062;11.722;2023-06-14T04:41:14;101392.03;;;16.36;88.07
47670;BME280;33408;52.062;11.722;2023-06-14T04:43:41;101405.25;;;17.11;86.94
47670;BME280;33408;52.062;11.722;2023-06-14T04:46:08;101410.31;;;17.65;84.74
47670;BME280;33408;52.062;11.722;2023-06-14T04:48:36;101405.28;;;17.82;83.48
47670;BME280;33408;52.062;11.722;2023-06-14T04:51:06;101396.75;;;18.23;80.10
47670;BME280;33408;52.062;11.722;2023-06-14T04:53:33;101397.69;;;18.20;78.73
47670;BME280;33408;52.062;11.722;2023-06-14T04:55:59;101407.09;;;17.80;79.90
47670;BME280;33408;52.062;11.722;2023-06-14T04:58:26;101405.41;;;17.79;80.94
47670;BME280;33408;52.062;11.722;2023-06-14T05:00:53;101401.22;;;18.41;77.02
47670;BME280;33408;52.062;11.722;2023-06-14T05:03:21;101412.09;;;17.86;79.03
47670;BME280;33408;52.062;11.722;2023-06-14T05:05:49;101408.84;;;18.70;75.45
47670;BME280;33408;52.062;11.722;2023-06-14T05:08:17;101407.13;;;18.48;76.04
47670;BME280;33408;52.062;11.722;2023-06-14T05:10:43;101411.13;;;18.35;76.83
47670;BME280;33408;52.062;11.722;2023-06-14T05:13:10;101407.66;;;19.39;72.98
47670;BME280;33408;52.062;11.722;2023-06-14T05:15:37;101409.97;;;19.46;70.84
47670;BME280;33408;52.062;11.722;2023-06-14T05:18:03;101414.22;;;18.67;74.55
47670;BME280;33408;52.062;11.722;2023-06-14T05:20:30;101421.38;;;17.97;77.85
47670;BME280;33408;52.062;11.722;2023-06-14T05:22:57;101419.59;;;19.85;71.89
47670;BME280;33408;52.062;11.722;2023-06-14T05:25:25;101417.09;;;18.61;74.67
47670;BME280;33408;52.062;11.722;2023-06-14T05:27:53;101417.81;;;18.86;74.87
47670;BME280;33408;52.062;11.722;2023-06-14T05:30:20;101423.72;;;18.27;76.34
47670;BME280;33408;52.062;11.722;2023-06-14T05:32:46;101420.13;;;19.15;74.20
47670;BME280;33408;52.062;11.722;2023-06-14T05:35:13;101419.75;;;19.22;73.08
47670;BME280;33408;52.062;11.722;2023-06-14T05:37:39;101415.38;;;19.02;73.04
47670;BME280;33408;52.062;11.722;2023-06-14T05:40:07;101422.66;;;20.14;68.11
47670;BME280;33408;52.062;11.722;2023-06-14T05:42:35;101414.41;;;19.05;70.29
47670;BME280;33408;52.062;11.722;2023-06-14T05:45:02;101407.97;;;19.12;69.20
47670;BME280;33408;52.062;11.722;2023-06-14T05:47:29;101409.72;;;19.51;69.26
47670;BME280;33408;52.062;11.722;2023-06-14T05:49:56;101411.66;;;19.87;69.24
47670;BME280;33408;52.062;11.722;2023-06-14T05:52:23;101406.03;;;19.76;66.83
47670;BME280;33408;52.062;11.722;2023-06-14T05:54:50;101408.19;;;20.23;67.02
47670;BME280;33408;52.062;11.722;2023-06-14T05:57:17;101409.75;;;20.27;66.69
47670;BME280;33408;52.062;11.722;2023-06-14T05:59:45;101420.72;;;20.54;66.15
47670;BME280;33408;52.062;11.722;2023-06-14T06:02:11;101416.13;;;20.40;63.83
47670;BME280;33408;52.062;11.722;2023-06-14T06:04:38;101415.50;;;20.35;64.72
47670;BME280;33408;52.062;11.722;2023-06-14T06:07:04;101429.53;;;19.60;68.75
47670;BME280;33408;52.062;11.722;2023-06-14T06:09:32;101432.16;;;18.77;69.09
47670;BME280;33408;52.062;11.722;2023-06-14T06:11:58;101426.94;;;18.55;72.14
47670;BME280;33408;52.062;11.722;2023-06-14T06:14:25;101426.72;;;19.44;69.59
47670;BME280;33408;52.062;11.722;2023-06-14T06:16:54;101433.63;;;18.63;71.11
47670;BME280;33408;52.062;11.722;2023-06-14T06:19:20;101438.41;;;19.37;70.29
47670;BME280;33408;52.062;11.722;2023-06-14T06:21:47;101438.66;;;19.51;69.04
47670;BME280;33408;52.062;11.722;2023-06-14T06:24:14;101436.22;;;19.07;69.76
47670;BME280;33408;52.062;11.722;2023-06-14T06:26:40;101438.97;;;19.24;69.44
47670;BME280;33408;52.062;11.722;2023-06-14T06:29:07;101438.56;;;18.70;72.09
47670;BME280;33408;52.062;11.722;2023-06-14T06:31:33;101440.56;;;19.08;70.42
47670;BME280;33408;52.062;11.722;2023-06-14T06:34:02;101454.66;;;18.85;71.43
47670;BME280;33408;52.062;11.722;2023-06-14T06:36:28;101449.72;;;18.55;73.02
47670;BME280;33408;52.062;11.722;2023-06-14T06:38:55;101451.63;;;18.29;73.11
47670;BME280;33408;52.062;11.722;2023-06-14T06:41:21;101457.00;;;18.48;71.88
47670;BME280;33408;52.062;11.722;2023-06-14T06:43:48;101440.38;;;18.48;72.21
47670;BME280;33408;52.062;11.722;2023-06-14T06:46:15;101443.03;;;18.90;71.08
47670;BME280;33408;52.062;11.722;2023-06-14T06:48:43;101453.22;;;19.39;70.68
47670;BME280;33408;52.062;11.722;2023-06-14T06:51:11;101450.97;;;18.67;69.62
47670;BME280;33408;52.062;11.722;2023-06-14T06:53:38;101452.19;;;18.80;70.29
47670;BME280;33408;52.062;11.722;2023-06-14T06:56:04;101452.59;;;18.49;70.02
47670;BME280;33408;52.062;11.722;2023-06-14T06:58:31;101453.56;;;18.90;69.86
47670;BME280;33408;52.062;11.722;2023-06-14T07:00:58;101451.97;;;18.86;69.56
47670;BME280;33408;52.062;11.722;2023-06-14T07:03:25;101451.25;;;19.03;68.75
47670;BME280;33408;52.062;11.722;2023-06-14T07:05:51;101450.69;;;18.97;66.96
47670;BME280;33408;52.062;11.722;2023-06-14T07:08:19;101451.53;;;18.75;66.99
47670;BME280;33408;52.062;11.722;2023-06-14T07:10:46;101460.06;;;19.43;66.00
47670;BME280;33408;52.062;11.722;2023-06-14T07:13:13;101459.59;;;19.34;64.00
47670;BME280;33408;52.062;11.722;2023-06-14T07:15:39;101459.41;;;19.78;62.80
47670;BME280;33408;52.062;11.722;2023-06-14T07:18:06;101460.66;;;19.09;60.65
47670;BME280;33408;52.062;11.722;2023-06-14T07:20:33;101462.13;;;19.35;61.06
47670;BME280;33408;52.062;11.722;2023-06-14T07:22:59;101467.16;;;19.00;60.40
47670;BME280;33408;52.062;11.722;2023-06-14T07:25:27;101473.19;;;19.43;60.95
47670;BME280;33408;52.062;11.722;2023-06-14T07:27:54;101466.47;;;19.57;62.55
47670;BME280;33408;52.062;11.722;2023-06-14T07:30:21;101468.91;;;19.61;62.50
47670;BME280;33408;52.062;11.722;2023-06-14T07:32:51;101466.00;;;19.67;61.30
47670;BME280;33408;52.062;11.722;2023-06-14T07:35:17;101462.31;;;19.32;60.03
47670;BME280;33408;52.062;11.722;2023-06-14T07:37:44;101465.88;;;19.71;59.63
47670;BME280;33408;52.062;11.722;2023-06-14T07:40:13;101463.41;;;19.86;59.49
47670;BME280;33408;52.062;11.722;2023-06-14T07:42:41;101463.22;;;19.71;59.77
47670;BME280;33408;52.062;11.722;2023-06-14T07:45:08;101458.28;;;19.83;59.81
47670;BME280;33408;52.062;11.722;2023-06-14T07:47:35;101462.69;;;20.21;58.90
47670;BME280;33408;52.062;11.722;2023-06-14T07:50:02;101470.53;;;20.22;59.10
47670;BME280;33408;52.062;11.722;2023-06-14T07:52:29;101462.69;;;19.83;59.68
47670;BME280;33408;52.062;11.722;2023-06-14T07:54:56;101461.94;;;20.19;58.78
47670;BME280;33408;52.062;11.722;2023-06-14T07:57:23;101456.25;;;20.46;58.06
47670;BME280;33408;52.062;11.722;2023-06-14T07:59:51;101465.69;;;20.13;57.89
47670;BME280;33408;52.062;11.722;2023-06-14T08:02:18;101466.66;;;20.30;58.23
47670;BME280;33408;52.062;11.722;2023-06-14T08:04:44;101453.56;;;21.01;56.77
47670;BME280;33408;52.062;11.722;2023-06-14T08:07:11;101465.00;;;20.83;55.13
47670;BME280;33408;52.062;11.722;2023-06-14T08:09:38;101449.44;;;20.42;54.05
47670;BME280;33408;52.062;11.722;2023-06-14T08:12:06;101447.94;;;20.36;54.51
47670;BME280;33408;52.062;11.722;2023-06-14T08:14:35;101450.91;;;20.66;53.56
47670;BME280;33408;52.062;11.722;2023-06-14T08:17:03;101459.34;;;20.73;53.84
47670;BME280;33408;52.062;11.722;2023-06-14T08:19:30;101457.88;;;21.20;53.39
47670;BME280;33408;52.062;11.722;2023-06-14T08:21:57;101459.44;;;20.89;53.02
47670;BME280;33408;52.062;11.722;2023-06-14T08:24:23;101449.97;;;21.02;53.67
47670;BME280;33408;52.062;11.722;2023-06-14T08:26:52;101459.28;;;21.43;52.14
47670;BME280;33408;52.062;11.722;2023-06-14T08:29:18;101458.84;;;21.52;51.73
47670;BME280;33408;52.062;11.722;2023-06-14T08:31:45;101447.28;;;21.55;51.46
47670;BME280;33408;52.062;11.722;2023-06-14T08:34:13;101454.91;;;21.26;52.46
47670;BME280;33408;52.062;11.722;2023-06-14T08:36:39;101450.75;;;22.20;51.35
47670;BME280;33408;52.062;11.722;2023-06-14T08:39:06;101442.97;;;21.19;53.23
47670;BME280;33408;52.062;11.722;2023-06-14T08:41:34;101448.47;;;21.49;52.72
47670;BME280;33408;52.062;11.722;2023-06-14T08:44:02;101452.88;;;22.30;50.93
47670;BME280;33408;52.062;11.722;2023-06-14T08:46:31;101455.97;;;21.57;51.01
47670;BME280;33408;52.062;11.722;2023-06-14T08:48:59;101451.28;;;21.62;50.78
47670;BME280;33408;52.062;11.722;2023-06-14T08:51:30;101450.34;;;21.12;52.29
47670;BME280;33408;52.062;11.722;2023-06-14T08:54:00;101456.41;;;21.47;51.37
47670;BME280;33408;52.062;11.722;2023-06-14T08:56:29;101444.13;;;21.48;51.95
47670;BME280;33408;52.062;11.722;2023-06-14T08:58:57;101447.72;;;21.63;51.95
47670;BME280;33408;52.062;11.722;2023-06-14T09:01:26;101454.91;;;21.77;52.86
47670;BME280;33408;52.062;11.722;2023-06-14T09:03:53;101456.91;;;22.37;51.00
47670;BME280;33408;52.062;11.722;2023-06-14T09:06:23;101455.84;;;21.76;51.52
47670;BME280;33408;52.062;11.722;2023-06-14T09:08:51;101453.50;;;21.36;52.90
47670;BME280;33408;52.062;11.722;2023-06-14T09:11:19;101451.97;;;21.32;53.38
47670;BME280;33408;52.062;11.722;2023-06-14T09:13:46;101450.25;;;21.48;53.09
47670;BME280;33408;52.062;11.722;2023-06-14T09:16:13;101453.72;;;21.82;52.88
47670;BME280;33408;52.062;11.722;2023-06-14T09:18:40;101454.31;;;22.19;52.15
47670;BME280;33408;52.062;11.722;2023-06-14T09:21:10;101445.09;;;22.58;50.87
47670;BME280;33408;52.062;11.722;2023-06-14T09:23:38;101449.56;;;22.42;50.96
47670;BME280;33408;52.062;11.722;2023-06-14T09:26:08;101446.72;;;22.61;51.00
47670;BME280;33408;52.062;11.722;2023-06-14T09:28:35;101450.75;;;22.04;51.50
47670;BME280;33408;52.062;11.722;2023-06-14T09:31:02;101460.91;;;22.28;51.36
47670;BME280;33408;52.062;11.722;2023-06-14T09:33:30;101455.19;;;22.82;50.57
47670;BME280;33408;52.062;11.722;2023-06-14T09:35:57;101446.94;;;23.03;50.32
47670;BME280;33408;52.062;11.722;2023-06-14T09:38:24;101454.94;;;22.87;50.10
47670;BME280;33408;52.062;11.722;2023-06-14T09:40:52;101455.78;;;22.25;51.04
47670;BME280;33408;52.062;11.722;2023-06-14T09:43:20;101460.81;;;21.98;52.47
47670;BME280;33408;52.062;11.722;2023-06-14T09:45:47;101459.16;;;21.79;52.65
47670;BME280;33408;52.062;11.722;2023-06-14T09:48:14;101458.69;;;21.55;53.47
47670;BME280;33408;52.062;11.722;2023-06-14T09:50:44;101449.59;;;21.61;53.87
47670;BME280;33408;52.062;11.722;2023-06-14T09:53:12;101448.84;;;21.75;53.68
47670;BME280;33408;52.062;11.722;2023-06-14T09:55:40;101440.75;;;21.78;54.51
47670;BME280;33408;52.062;11.722;2023-06-14T09:58:10;101457.25;;;22.31;52.77
47670;BME280;33408;52.062;11.722;2023-06-14T10:00:40;101444.50;;;22.53;51.41
47670;BME280;33408;52.062;11.722;2023-06-14T10:03:12;101451.81;;;23.39;50.82
47670;BME280;33408;52.062;11.722;2023-06-14T10:05:42;101440.94;;;23.73;50.15
47670;BME280;33408;52.062;11.722;2023-06-14T10:08:12;101443.50;;;23.89;48.92
47670;BME280;33408;52.062;11.722;2023-06-14T10:10:42;101435.63;;;22.70;51.18
47670;BME280;33408;52.062;11.722;2023-06-14T10:13:09;101443.88;;;22.34;51.88
47670;BME280;33408;52.062;11.722;2023-06-14T10:15:45;101426.50;;;22.90;51.73
47670;BME280;33408;52.062;11.722;2023-06-14T10:18:19;101423.31;;;23.44;50.66
47670;BME280;33408;52.062;11.722;2023-06-14T10:20:55;101417.81;;;22.88;52.35
47670;BME280;33408;52.062;11.722;2023-06-14T10:23:26;101422.75;;;22.94;52.83
47670;BME280;33408;52.062;11.722;2023-06-14T10:25:56;101424.97;;;22.72;52.99
47670;BME280;33408;52.062;11.722;2023-06-14T10:28:25;101428.84;;;21.71;53.33
47670;BME280;33408;52.062;11.722;2023-06-14T10:31:07;101436.31;;;22.58;52.77
47670;BME280;33408;52.062;11.722;2023-06-14T10:33:35;101420.28;;;22.91;52.72
47670;BME280;33408;52.062;11.722;2023-06-14T10:36:09;101421.88;;;23.39;50.83
47670;BME280;33408;52.062;11.722;2023-06-14T10:38:36;101432.72;;;22.75;52.14
47670;BME280;33408;52.062;11.722;2023-06-14T10:41:04;101423.63;;;21.53;54.28
47670;BME280;33408;52.062;11.722;2023-06-14T10:43:31;101429.69;;;21.71;54.39
47670;BME280;33408;52.062;11.722;2023-06-14T10:46:18;101424.66;;;21.66;54.66
47670;BME280;33408;52.062;11.722;2023-06-14T10:48:48;101419.38;;;21.66;54.74
47670;BME280;33408;52.062;11.722;2023-06-14T10:51:16;101419.31;;;22.00;53.65
47670;BME280;33408;52.062;11.722;2023-06-14T10:53:46;101414.38;;;22.42;51.53
47670;BME280;33408;52.062;11.722;2023-06-14T10:56:24;101425.97;;;22.07;52.57
47670;BME280;33408;52.062;11.722;2023-06-14T10:58:53;101415.97;;;22.44;51.99
47670;BME280;33408;52.062;11.722;2023-06-14T11:01:31;101409.19;;;22.70;51.13
47670;BME280;33408;52.062;11.722;2023-06-14T11:04:07;101426.03;;;23.14;50.83
47670;BME280;33408;52.062;11.722;2023-06-14T11:06:47;101411.41;;;22.92;50.65
47670;BME280;33408;52.062;11.722;2023-06-14T11:12:20;101392.00;;;23.37;48.38
47670;BME280;33408;52.062;11.722;2023-06-14T11:14:47;101392.00;;;23.22;48.41
47670;BME280;33408;52.062;11.722;2023-06-14T11:17:15;101392.69;;;22.81;49.41
47670;BME280;33408;52.062;11.722;2023-06-14T11:19:42;101394.13;;;22.56;50.01
47670;BME280;33408;52.062;11.722;2023-06-14T11:22:10;101389.31;;;22.93;50.07
47670;BME280;33408;52.062;11.722;2023-06-14T11:24:36;101384.31;;;23.90;49.55
47670;BME280;33408;52.062;11.722;2023-06-14T11:27:03;101395.34;;;23.82;48.13
47670;BME280;33408;52.062;11.722;2023-06-14T11:29:31;101388.59;;;24.72;47.45
47670;BME280;33408;52.062;11.722;2023-06-14T11:31:58;101389.31;;;23.80;48.17
47670;BME280;33408;52.062;11.722;2023-06-14T11:34:26;101373.09;;;23.00;48.56
47670;BME280;33408;52.062;11.722;2023-06-14T11:36:53;101392.38;;;22.41;49.41
47670;BME280;33408;52.062;11.722;2023-06-14T11:39:24;101380.06;;;22.86;49.50
47670;BME280;33408;52.062;11.722;2023-06-14T11:41:50;101371.28;;;23.72;48.66
47670;BME280;33408;52.062;11.722;2023-06-14T11:44:17;101362.25;;;23.47;48.27
47670;BME280;33408;52.062;11.722;2023-06-14T11:46:44;101366.25;;;24.36;47.24
47670;BME280;33408;52.062;11.722;2023-06-14T11:49:11;101370.16;;;25.35;46.03
47670;BME280;33408;52.062;11.722;2023-06-14T11:51:39;101365.94;;;24.41;45.84
47670;BME280;33408;52.062;11.722;2023-06-14T11:54:06;101366.66;;;23.61;48.10
47670;BME280;33408;52.062;11.722;2023-06-14T11:56:34;101367.63;;;23.60;48.28
47670;BME280;33408;52.062;11.722;2023-06-14T11:59:02;101369.16;;;23.21;48.59
47670;BME280;33408;52.062;11.722;2023-06-14T12:01:31;101375.13;;;23.10;48.66
47670;BME280;33408;52.062;11.722;2023-06-14T12:03:59;101361.47;;;22.88;49.65
47670;BME280;33408;52.062;11.722;2023-06-14T12:06:26;101354.53;;;22.71;49.68
47670;BME280;33408;52.062;11.722;2023-06-14T12:08:59;101364.91;;;23.89;47.49
47670;BME280;33408;52.062;11.722;2023-06-14T12:11:33;101355.13;;;24.04;46.73
47670;BME280;33408;52.062;11.722;2023-06-14T12:14:00;101357.31;;;24.65;45.34
47670;BME280;33408;52.062;11.722;2023-06-14T12:16:30;101355.94;;;24.85;45.18
47670;BME280;33408;52.062;11.722;2023-06-14T12:19:00;101357.09;;;24.81;44.89
47670;BME280;33408;52.062;11.722;2023-06-14T12:21:27;101358.56;;;23.92;46.48
47670;BME280;33408;52.062;11.722;2023-06-14T12:23:54;101357.28;;;23.70;46.45
47670;BME280;33408;52.062;11.722;2023-06-14T12:26:24;101351.13;;;24.11;46.79
47670;BME280;33408;52.062;11.722;2023-06-14T12:28:51;101352.81;;;24.39;45.52
47670;BME280;33408;52.062;11.722;2023-06-14T12:31:18;101349.16;;;24.00;46.11
47670;BME280;33408;52.062;11.722;2023-06-14T12:33:45;101342.22;;;24.52;45.24
47670;BME280;33408;52.062;11.722;2023-06-14T12:36:14;101352.00;;;25.29;43.70
47670;BME280;33408;52.062;11.722;2023-06-14T12:38:41;101342.16;;;24.27;45.38
47670;BME280;33408;52.062;11.722;2023-06-14T12:41:07;101352.00;;;24.12;45.70
47670;BME280;33408;52.062;11.722;2023-06-14T12:43:35;101345.34;;;23.92;45.87